Time;durP1;ratioP1;P1;durP2;ratioP2;P2;SDS_P1;SDS_P2;PMS_P1;PMS_P2;Temp;Humidity;BMP_temperature;BMP_pressure;BME280_temperature;BME280_humidity;BME280_pressure;Samples;Min_cycle;Max_cycle;Signal;HPM_P1;HPM_P2
2023/02/20 03:02:49;;;;;;;11.03;10.13;;;7.20;99.90;;;;;;4995998;23;20236;-78
2023/02/20 03:05:19;;;;;;;11.17;10.27;;;7.20;99.90;;;;;;4950899;28;20210;-78
2023/02/20 03:07:49;;;;;;;10.87;9.97;;;7.20;99.90;;;;;;4951527;29;20291;-78
2023/02/20 03:10:30;;;;;;;10.60;9.63;;;7.30;99.90;;;;;;4957108;28;20249;-79
2023/02/20 03:13:02;;;;;;;10.17;9.30;;;7.30;99.90;;;;;;4938862;29;20230;-79
2023/02/20 03:15:32;;;;;;;11.00;10.00;;;7.30;99.90;;;;;;4940048;29;20222;-78
2023/02/20 03:18:10;;;;;;;13.50;10.60;;;7.40;99.90;;;;;;4940143;29;20215;-78
2023/02/20 03:20:39;;;;;;;11.90;10.93;;;7.40;99.90;;;;;;4935871;29;20259;-80
2023/02/20 03:23:12;;;;;;;11.60;10.70;;;7.40;99.90;;;;;;4955220;28;20210;-78
2023/02/20 03:25:44;;;;;;;12.37;11.27;;;7.40;99.90;;;;;;4938711;29;20417;-81
2023/02/20 03:28:16;;;;;;;10.93;10.23;;;7.40;99.90;;;;;;4947463;29;20249;-81
2023/02/20 03:30:46;;;;;;;11.20;10.40;;;7.30;99.90;;;;;;4938260;29;20232;-81
2023/02/20 03:44:33;;;;;;;9.57;8.77;;;7.10;99.90;;;;;;4929706;29;20269;-81
2023/02/20 03:47:01;;;;;;;8.63;7.77;;;7.10;99.90;;;;;;4936592;29;20560;-81
2023/02/20 03:52:20;;;;;;;7.57;6.83;;;6.90;99.90;;;;;;4930265;29;20607;-82
2023/02/20 03:54:48;;;;;;;7.00;6.47;;;6.80;99.90;;;;;;4934582;29;20197;-84
2023/02/20 03:57:18;;;;;;;4.03;3.73;;;6.80;99.90;;;;;;4930918;29;20199;-85
2023/02/20 03:59:51;;;;;;;5.77;4.43;;;6.70;99.90;;;;;;4927220;29;20692;-85
2023/02/20 04:02:22;;;;;;;8.47;4.10;;;6.60;99.90;;;;;;4932119;29;20618;-85
2023/02/20 04:04:53;;;;;;;5.87;4.10;;;6.60;99.90;;;;;;4932234;29;20218;-85
2023/02/20 04:07:25;;;;;;;5.07;4.03;;;6.50;99.90;;;;;;4937009;29;20660;-85
2023/02/20 04:09:54;;;;;;;4.60;4.00;;;6.50;99.90;;;;;;4935225;29;20204;-84
2023/02/20 04:12:24;;;;;;;6.63;4.10;;;6.50;99.90;;;;;;4941030;29;20216;-85
2023/02/20 04:14:54;;;;;;;5.43;4.27;;;6.40;99.90;;;;;;4951635;28;20231;-88
2023/02/20 04:17:24;;;;;;;6.00;4.33;;;6.30;99.90;;;;;;4936060;29;20259;-85
2023/02/20 04:19:53;;;;;;;6.47;4.90;;;6.30;99.90;;;;;;4944551;29;20230;-85
2023/02/20 04:22:24;;;;;;;8.63;7.93;;;6.20;99.90;;;;;;4931744;29;20217;-85
2023/02/20 04:24:55;;;;;;;10.53;9.60;;;6.20;99.90;;;;;;4929723;29;20213;-85
2023/02/20 04:27:24;;;;;;;10.33;9.53;;;6.20;99.90;;;;;;4932428;29;20597;-86
2023/02/20 04:29:55;;;;;;;9.73;8.83;;;6.10;99.90;;;;;;4952247;28;20272;-81
2023/02/20 04:32:22;;;;;;;9.80;9.00;;;6.10;99.90;;;;;;4937339;29;20232;-85
2023/02/20 04:34:49;;;;;;;9.67;8.77;;;6.00;99.90;;;;;;4935287;29;20679;-83
2023/02/20 04:37:19;;;;;;;9.93;9.13;;;6.00;99.90;;;;;;4937185;29;20267;-84
2023/02/20 04:39:49;;;;;;;10.50;9.60;;;6.00;99.90;;;;;;4935820;29;20200;-82
2023/02/20 04:42:17;;;;;;;12.00;11.20;;;6.00;99.90;;;;;;4935482;28;20310;-85
2023/02/20 04:44:44;;;;;;;11.23;10.50;;;6.00;99.90;;;;;;4951372;28;20295;-86
2023/02/20 04:47:14;;;;;;;12.33;11.33;;;5.90;99.90;;;;;;4954569;28;20581;-80
2023/02/20 04:49:41;;;;;;;12.10;11.20;;;5.90;99.90;;;;;;4956619;28;20204;-79
2023/02/20 04:52:10;;;;;;;12.53;11.53;;;5.90;99.90;;;;;;4944532;29;20259;-79
2023/02/20 04:54:39;;;;;;;12.47;11.57;;;5.90;99.90;;;;;;4955351;28;20226;-79
2023/02/20 04:57:07;;;;;;;12.03;11.20;;;5.90;99.90;;;;;;4941429;29;20197;-80
2023/02/20 04:59:34;;;;;;;11.93;11.13;;;5.80;99.90;;;;;;4940332;29;20357;-80
2023/02/20 05:02:01;;;;;;;12.23;11.33;;;5.80;99.90;;;;;;4940451;29;20228;-80
2023/02/20 05:04:28;;;;;;;12.50;11.70;;;5.80;99.90;;;;;;4940459;28;20748;-80
2023/02/20 05:06:56;;;;;;;12.07;11.27;;;5.80;99.90;;;;;;4937329;29;20279;-80
2023/02/20 05:09:23;;;;;;;12.30;11.40;;;5.70;99.90;;;;;;4941106;29;20246;-80
2023/02/20 05:11:52;;;;;;;12.23;11.43;;;5.70;99.90;;;;;;4940121;29;20226;-80
2023/02/20 05:14:19;;;;;;;12.33;11.53;;;5.60;99.90;;;;;;4955979;28;20291;-80
2023/02/20 05:16:46;;;;;;;12.40;11.40;;;5.60;99.90;;;;;;4941079;29;20200;-80
2023/02/20 05:19:14;;;;;;;12.03;11.27;;;5.50;99.90;;;;;;4954962;28;20230;-79
2023/02/20 05:24:33;;;;;;;12.17;11.30;;;5.50;99.90;;;;;;4931234;29;20636;-80
2023/02/20 05:27:01;;;;;;;12.83;11.73;;;5.50;99.90;;;;;;4941718;29;20227;-80
2023/02/20 05:29:28;;;;;;;12.23;11.43;;;5.40;99.90;;;;;;4941495;29;20254;-80
2023/02/20 05:31:55;;;;;;;12.50;11.60;;;5.40;99.90;;;;;;4955533;28;20314;-79
2023/02/20 05:34:24;;;;;;;13.43;12.33;;;5.30;99.90;;;;;;4940473;29;20196;-80
2023/02/20 05:36:51;;;;;;;13.23;12.30;;;5.30;99.90;;;;;;4937145;29;20205;-80
2023/02/20 05:39:18;;;;;;;13.20;12.27;;;5.30;99.90;;;;;;4947727;28;20207;-80
2023/02/20 05:41:45;;;;;;;12.83;11.93;;;5.20;99.90;;;;;;4940942;29;20780;-80
2023/02/20 05:44:13;;;;;;;13.60;12.53;;;5.20;99.90;;;;;;4939710;28;20621;-80
2023/02/20 05:46:41;;;;;;;13.67;12.67;;;5.10;99.90;;;;;;4940372;29;20270;-80
2023/02/20 05:49:09;;;;;;;13.67;12.67;;;5.10;99.90;;;;;;4940252;29;20211;-80
2023/02/20 05:51:35;;;;;;;14.20;12.40;;;5.10;99.90;;;;;;4940570;29;20227;-80
2023/02/20 05:54:03;;;;;;;12.50;11.60;;;5.00;99.90;;;;;;4940277;29;20203;-80
2023/02/20 05:56:31;;;;;;;12.80;11.90;;;5.00;99.90;;;;;;4943060;29;20223;-78
2023/02/20 05:58:58;;;;;;;12.80;11.80;;;5.00;99.90;;;;;;4950752;29;20211;-80
2023/02/20 06:01:29;;;;;;;14.10;12.70;;;5.00;99.90;;;;;;4941353;29;20227;-80
2023/02/20 06:03:55;;;;;;;12.73;11.83;;;5.00;99.90;;;;;;4939396;29;20195;-80
2023/02/20 06:06:22;;;;;;;15.73;14.10;;;5.00;99.90;;;;;;4954876;28;20223;-79
2023/02/20 06:08:49;;;;;;;18.30;16.40;;;5.00;99.90;;;;;;4942365;29;20254;-79
2023/02/20 06:11:16;;;;;;;24.00;18.13;;;5.00;99.90;;;;;;4942785;29;20223;-79
2023/02/20 06:13:44;;;;;;;19.43;16.47;;;5.00;99.90;;;;;;4959241;28;20218;-79
2023/02/20 06:16:12;;;;;;;17.47;15.63;;;5.00;99.90;;;;;;4941210;29;20203;-80
2023/02/20 06:18:41;;;;;;;15.90;14.07;;;5.00;99.90;;;;;;4955123;28;20231;-80
2023/02/20 06:21:08;;;;;;;15.40;14.20;;;5.00;99.90;;;;;;4939308;29;20229;-80
2023/02/20 06:23:36;;;;;;;14.50;13.30;;;5.10;99.90;;;;;;4955002;29;20204;-79
2023/02/20 06:26:03;;;;;;;14.10;12.90;;;5.10;99.90;;;;;;4938957;29;20219;-80
2023/02/20 06:28:30;;;;;;;14.07;12.97;;;5.10;99.90;;;;;;4943580;29;20204;-80
2023/02/20 06:30:57;;;;;;;12.73;11.83;;;5.10;99.90;;;;;;4940055;29;20254;-79
2023/02/20 06:33:24;;;;;;;13.03;12.03;;;5.10;99.90;;;;;;4939544;29;20210;-80
2023/02/20 06:35:52;;;;;;;12.50;11.70;;;5.10;99.90;;;;;;4943426;29;20245;-85
2023/02/20 06:38:19;;;;;;;12.83;11.93;;;5.10;99.90;;;;;;4938925;29;20208;-80
2023/02/20 06:40:45;;;;;;;12.87;11.80;;;5.10;99.90;;;;;;4939600;29;20713;-83
2023/02/20 06:43:12;;;;;;;13.33;12.20;;;5.20;99.90;;;;;;4935984;29;20208;-80
2023/02/20 06:45:39;;;;;;;13.07;11.97;;;5.20;99.90;;;;;;4936713;29;20262;-80
2023/02/20 06:48:06;;;;;;;13.20;12.10;;;5.20;99.90;;;;;;4937445;29;20250;-81
2023/02/20 06:50:33;;;;;;;13.23;12.13;;;5.20;99.90;;;;;;4936392;29;20211;-82
2023/02/20 06:53:01;;;;;;;13.60;12.47;;;5.20;99.90;;;;;;4937118;29;20207;-81
2023/02/20 06:55:28;;;;;;;13.13;12.20;;;5.10;99.90;;;;;;4936314;29;20188;-81
2023/02/20 06:57:54;;;;;;;14.30;13.13;;;5.10;99.90;;;;;;4951538;28;20299;-81
2023/02/20 07:00:22;;;;;;;13.90;12.70;;;5.10;99.90;;;;;;4936684;29;20203;-81
2023/02/20 07:02:48;;;;;;;13.60;12.67;;;5.10;99.90;;;;;;4951445;28;20237;-81
2023/02/20 07:05:15;;;;;;;13.77;12.77;;;5.30;99.90;;;;;;4934122;29;20223;-81
2023/02/20 07:07:42;;;;;;;13.73;12.63;;;5.40;99.90;;;;;;4941594;29;20215;-80
2023/02/20 07:10:10;;;;;;;14.30;13.30;;;5.60;99.90;;;;;;4936368;29;20268;-81
2023/02/20 07:12:38;;;;;;;14.47;13.47;;;5.80;99.90;;;;;;4933089;29;20253;-82
2023/02/20 07:15:06;;;;;;;13.63;12.43;;;6.00;99.90;;;;;;4950990;29;20204;-81
2023/02/20 07:17:32;;;;;;;13.32;12.32;;;6.10;99.90;;;;;;4935265;29;20878;-82
2023/02/20 07:19:59;;;;;;;14.35;13.35;;;6.20;99.90;;;;;;4939835;29;20415;-81
2023/02/20 07:22:26;;;;;;;14.87;13.67;;;6.40;99.90;;;;;;4932205;29;20230;-83
2023/02/20 07:24:53;;;;;;;14.03;13.13;;;6.50;99.90;;;;;;4932653;29;20529;-82
2023/02/20 07:27:22;;;;;;;13.80;12.70;;;6.60;99.90;;;;;;4937054;29;20249;-82
2023/02/20 07:29:50;;;;;;;13.73;12.70;;;6.70;99.90;;;;;;4951394;28;20217;-82
2023/02/20 07:32:19;;;;;;;13.00;12.10;;;6.70;99.90;;;;;;4937158;29;20357;-83
2023/02/20 07:34:46;;;;;;;13.07;12.07;;;6.70;99.90;;;;;;4935114;29;20207;-82
2023/02/20 07:37:15;;;;;;;13.10;12.10;;;6.70;99.90;;;;;;4951538;29;20204;-82
2023/02/20 07:39:41;;;;;;;12.60;11.70;;;6.80;99.90;;;;;;4931322;29;20715;-82
2023/02/20 07:42:08;;;;;;;12.80;11.80;;;6.90;99.90;;;;;;4936674;29;20230;-85
2023/02/20 07:44:47;;;;;;;13.97;12.90;;;7.00;99.90;;;;;;4936207;29;20684;-86
2023/02/20 07:47:14;;;;;;;13.20;12.20;;;7.20;99.90;;;;;;4952465;28;20250;-85
2023/02/20 07:49:41;;;;;;;10.67;9.77;;;7.40;99.90;;;;;;4936252;29;20210;-85
2023/02/20 07:52:08;;;;;;;7.63;5.17;;;7.80;99.90;;;;;;4936478;29;20234;-85
2023/02/20 07:54:34;;;;;;;9.10;8.20;;;8.10;99.90;;;;;;4935149;29;20235;-85
2023/02/20 07:57:01;;;;;;;9.60;8.80;;;8.60;99.90;;;;;;4936162;29;20230;-81
2023/02/20 07:59:28;;;;;;;14.23;12.97;;;9.00;99.90;;;;;;4932792;29;20259;-82
2023/02/20 08:01:56;;;;;;;14.93;13.47;;;9.40;99.90;;;;;;4930553;29;20235;-81
2023/02/20 08:04:23;;;;;;;14.20;12.77;;;9.90;99.90;;;;;;4951589;28;20226;-81
2023/02/20 08:06:50;;;;;;;14.20;13.10;;;10.40;99.90;;;;;;4951260;28;20226;-82
2023/02/20 08:09:17;;;;;;;13.47;12.33;;;10.70;99.90;;;;;;4937030;29;20203;-81
2023/02/20 08:11:43;;;;;;;13.47;12.37;;;10.80;99.90;;;;;;4949365;29;20256;-83
2023/02/20 08:14:10;;;;;;;13.53;12.40;;;11.00;99.90;;;;;;4934021;29;20592;-83
2023/02/20 08:16:37;;;;;;;13.80;12.57;;;11.20;99.90;;;;;;4930214;29;20582;-82
2023/02/20 08:19:05;;;;;;;8.37;4.63;;;11.50;99.90;;;;;;4933777;29;20262;-82
2023/02/20 08:21:32;;;;;;;10.17;8.63;;;11.80;99.90;;;;;;4939882;29;20250;-82
2023/02/20 08:23:59;;;;;;;8.07;4.57;;;12.10;99.90;;;;;;4942175;29;20209;-82
2023/02/20 08:26:26;;;;;;;7.87;5.67;;;12.30;99.90;;;;;;4957371;29;20223;-83
2023/02/20 08:28:53;;;;;;;6.73;4.53;;;12.40;99.90;;;;;;4940939;29;20226;-80
2023/02/20 08:31:21;;;;;;;7.23;6.53;;;12.60;99.90;;;;;;4940456;29;20219;-83
2023/02/20 08:33:47;;;;;;;7.73;6.23;;;12.70;99.90;;;;;;4956743;29;20293;-83
2023/02/20 08:36:17;;;;;;;5.13;4.47;;;13.00;99.90;;;;;;4938591;29;20204;-82
2023/02/20 08:38:44;;;;;;;15.03;4.80;;;13.10;99.90;;;;;;4942620;29;20195;-80
2023/02/20 08:41:12;;;;;;;16.23;4.93;;;13.20;99.90;;;;;;4940075;29;20816;-82
2023/02/20 08:43:42;;;;;;;21.10;5.33;;;13.30;99.90;;;;;;4957671;28;20228;-79
2023/02/20 08:46:09;;;;;;;8.73;3.83;;;13.40;99.90;;;;;;4940507;28;20313;-82
2023/02/20 08:48:36;;;;;;;10.10;4.37;;;13.70;99.90;;;;;;4942924;29;20203;-83
2023/02/20 08:51:04;;;;;;;6.87;3.93;;;13.70;99.90;;;;;;4943390;29;20246;-80
2023/02/20 08:53:33;;;;;;;5.70;3.73;;;13.90;99.90;;;;;;4933878;29;20214;-81
2023/02/20 08:55:59;;;;;;;7.77;3.43;;;13.90;99.90;;;;;;4940912;29;20209;-83
2023/02/20 08:58:27;;;;;;;6.50;3.60;;;14.10;99.90;;;;;;4942839;29;20211;-81
2023/02/20 09:00:54;;;;;;;7.33;3.70;;;14.10;99.90;;;;;;4938046;29;20232;-78
2023/02/20 09:03:21;;;;;;;8.27;3.67;;;14.40;99.90;;;;;;4940551;29;20199;-81
2023/02/20 09:05:48;;;;;;;4.47;3.63;;;14.50;99.90;;;;;;4956639;28;20711;-81
2023/02/20 09:08:15;;;;;;;5.37;3.60;;;14.50;99.90;;;;;;4939726;29;20239;-81
2023/02/20 09:10:43;;;;;;;7.80;3.60;;;14.60;99.90;;;;;;4937773;29;20257;-80
2023/02/20 09:13:10;;;;;;;6.07;3.60;;;14.80;99.90;;;;;;4942076;29;20209;-80
2023/02/20 09:15:38;;;;;;;9.53;8.80;;;14.70;99.90;;;;;;4940944;29;20211;-79
2023/02/20 09:18:08;;;;;;;10.27;9.03;;;14.70;99.90;;;;;;4940167;29;20630;-78
2023/02/20 09:20:35;;;;;;;10.43;9.43;;;14.70;99.90;;;;;;4940611;29;20686;-80
2023/02/20 09:23:02;;;;;;;12.20;10.80;;;14.90;99.90;;;;;;4941764;29;20229;-77
2023/02/20 09:25:29;;;;;;;11.43;10.53;;;14.90;99.90;;;;;;4956521;29;20230;-80
2023/02/20 09:27:57;;;;;;;10.90;10.10;;;15.10;99.90;;;;;;4942263;29;20233;-79
2023/02/20 09:30:24;;;;;;;11.27;10.37;;;15.30;99.90;;;;;;4944851;29;20208;-80
2023/02/20 09:32:51;;;;;;;11.00;10.00;;;15.30;99.90;;;;;;4941757;29;20675;-78
2023/02/20 09:35:21;;;;;;;11.47;10.50;;;15.30;99.90;;;;;;4951081;28;20234;-78
2023/02/20 09:37:48;;;;;;;11.60;10.70;;;15.40;99.90;;;;;;4941466;29;20274;-81
2023/02/20 09:40:16;;;;;;;11.63;10.80;;;15.50;99.90;;;;;;4956640;28;20580;-78
2023/02/20 09:42:55;;;;;;;10.90;10.20;;;15.40;99.90;;;;;;4956782;28;20234;-76
2023/02/20 09:45:28;;;;;;;11.57;10.77;;;15.40;99.90;;;;;;4940341;29;20210;-80
2023/02/20 09:48:14;;;;;;;10.70;9.90;;;15.50;99.90;;;;;;4936043;29;20256;-79
2023/02/20 09:50:45;;;;;;;11.23;10.33;;;15.50;99.90;;;;;;4934691;29;20266;-78
2023/02/20 09:53:21;;;;;;;11.73;10.83;;;15.50;99.90;;;;;;4940538;29;20212;-78
2023/02/20 09:55:55;;;;;;;11.20;10.20;;;15.50;99.90;;;;;;4939501;29;20230;-81
2023/02/20 09:58:27;;;;;;;10.97;10.17;;;15.50;99.90;;;;;;4938171;29;20207;-78
2023/02/20 10:00:59;;;;;;;11.20;10.50;;;15.60;99.90;;;;;;4939780;28;20234;-80
2023/02/20 10:03:33;;;;;;;10.90;10.13;;;15.60;99.90;;;;;;4940000;29;20200;-81
2023/02/20 10:06:03;;;;;;;10.33;9.37;;;15.50;99.90;;;;;;4946877;29;20614;-78
2023/02/20 10:08:30;;;;;;;9.70;9.00;;;15.50;99.90;;;;;;4958423;28;20199;-78
2023/02/20 10:11:04;;;;;;;9.67;8.97;;;15.60;99.90;;;;;;4959404;28;20231;-78
2023/02/20 10:13:42;;;;;;;10.50;9.60;;;15.50;99.90;;;;;;4943164;29;20261;-79
2023/02/20 10:16:22;;;;;;;9.90;9.17;;;15.40;99.90;;;;;;4947037;29;20199;-77
2023/02/20 10:19:01;;;;;;;10.73;9.67;;;15.30;99.90;;;;;;4945908;29;20207;-78
2023/02/20 10:21:42;;;;;;;10.10;9.40;;;15.20;99.90;;;;;;4944973;28;20227;-78
2023/02/20 10:24:23;;;;;;;9.90;9.20;;;15.10;99.90;;;;;;4938898;29;20206;-78
2023/02/20 10:26:57;;;;;;;9.13;8.43;;;15.10;99.90;;;;;;4941832;29;20278;-78
2023/02/20 10:29:27;;;;;;;9.23;8.53;;;15.00;99.90;;;;;;4941651;29;20256;-80
2023/02/20 10:32:01;;;;;;;9.27;8.57;;;14.70;99.90;;;;;;4941259;29;20223;-80
2023/02/20 10:34:34;;;;;;;8.90;8.30;;;14.40;99.90;;;;;;4938937;29;20267;-80
2023/02/20 10:37:06;;;;;;;9.83;8.60;;;14.00;99.90;;;;;;4942212;29;20221;-80
2023/02/20 10:39:35;;;;;;;9.60;9.00;;;13.80;99.90;;;;;;4945774;28;20211;-81
2023/02/20 10:42:10;;;;;;;9.17;8.37;;;13.50;99.90;;;;;;4941740;29;20742;-80
2023/02/20 10:44:42;;;;;;;8.70;8.10;;;13.30;99.90;;;;;;4949795;28;20204;-80
2023/02/20 10:47:18;;;;;;;8.73;8.03;;;13.30;99.90;;;;;;4952360;28;20258;-80
2023/02/20 10:49:51;;;;;;;9.23;8.53;;;13.40;99.90;;;;;;4946159;29;20204;-80
2023/02/20 10:52:26;;;;;;;9.37;8.50;;;13.40;99.90;;;;;;4941684;29;20238;-79
2023/02/20 10:55:00;;;;;;;9.77;8.97;;;13.40;99.90;;;;;;4940124;29;20227;-80
2023/02/20 10:57:30;;;;;;;9.77;8.97;;;13.40;99.90;;;;;;4941217;29;20268;-78
2023/02/20 11:00:04;;;;;;;10.07;9.27;;;13.50;99.90;;;;;;4940711;29;20451;-80
2023/02/20 11:02:35;;;;;;;9.53;8.83;;;13.40;99.90;;;;;;4937228;29;20248;-78
2023/02/20 11:05:27;;;;;;;9.20;8.50;;;13.40;99.90;;;;;;4933907;29;20197;-85
2023/02/20 11:07:54;;;;;;;9.73;8.73;;;13.40;99.90;;;;;;4926619;29;20278;-82
2023/02/20 12:46:04;;;;;;;8.60;8.10;;;13.90;99.90;;;;;;5440961;23;20773;-79
2023/02/20 12:48:42;;;;;;;8.70;8.10;;;13.90;99.90;;;;;;4936533;29;20212;-80
2023/02/20 12:51:17;;;;;;;8.63;8.03;;;14.00;99.90;;;;;;4943018;29;20224;-80
2023/02/20 12:53:57;;;;;;;8.73;8.23;;;14.00;99.90;;;;;;4933526;29;20615;-80
2023/02/20 12:56:40;;;;;;;8.87;8.17;;;13.90;99.90;;;;;;4922463;29;20262;-79
2023/02/20 12:59:16;;;;;;;9.30;8.70;;;14.00;99.90;;;;;;4929035;29;20606;-80
2023/02/20 13:01:43;;;;;;;9.00;8.40;;;13.90;99.90;;;;;;4932706;29;20224;-80
2023/02/20 13:04:23;;;;;;;9.00;8.30;;;13.90;99.90;;;;;;4926560;29;20667;-80
2023/02/20 13:07:00;;;;;;;9.03;8.33;;;14.00;99.90;;;;;;4923946;29;20207;-80
2023/02/20 13:09:31;;;;;;;9.00;8.30;;;14.00;99.90;;;;;;4923920;29;20212;-80
2023/02/20 13:12:03;;;;;;;8.87;8.37;;;14.10;99.90;;;;;;4921199;29;20292;-79
2023/02/20 13:14:42;;;;;;;8.10;7.70;;;14.10;99.90;;;;;;4918635;29;20197;-80
2023/02/20 13:17:22;;;;;;;8.63;8.03;;;14.10;99.90;;;;;;4914442;29;20263;-80
2023/02/20 13:19:57;;;;;;;8.80;8.20;;;14.10;99.90;;;;;;4916814;29;20199;-80
2023/02/20 13:22:24;;;;;;;9.23;8.60;;;14.10;99.90;;;;;;4932580;29;20222;-79
2023/02/20 13:24:51;;;;;;;8.40;7.90;;;14.10;99.90;;;;;;4952935;28;20250;-79
2023/02/20 13:27:31;;;;;;;9.30;8.60;;;14.20;99.90;;;;;;4926870;29;20706;-79
2023/02/20 13:30:00;;;;;;;8.40;7.90;;;14.20;99.90;;;;;;4928700;29;20195;-79
2023/02/20 13:32:29;;;;;;;8.80;8.30;;;14.20;99.90;;;;;;4941462;29;20250;-79
2023/02/20 13:37:55;;;;;;;8.50;8.00;;;14.30;99.90;;;;;;5214832;27;20574;-83
2023/02/20 13:40:42;;;;;;;11.67;9.03;;;14.30;99.90;;;;;;5188981;27;20184;-82
2023/02/20 13:43:34;;;;;;;9.27;8.57;;;14.30;99.90;;;;;;5150122;27;20191;-83
2023/02/20 13:46:23;;;;;;;9.07;8.40;;;14.30;99.90;;;;;;5178227;27;20214;-83
2023/02/20 13:48:52;;;;;;;8.00;7.60;;;14.40;99.90;;;;;;5171915;27;20189;-83
2023/02/20 13:51:36;;;;;;;8.80;8.20;;;14.30;99.90;;;;;;5179814;27;20217;-83
2023/02/20 13:54:25;;;;;;;8.60;8.00;;;14.30;99.90;;;;;;5148407;27;20201;-83
2023/02/20 13:56:58;;;;;;;9.13;8.23;;;14.40;99.90;;;;;;5155008;27;20226;-83
2023/02/20 13:59:27;;;;;;;9.57;8.63;;;14.40;99.90;;;;;;5156826;27;20598;-82
2023/02/20 14:02:03;;;;;;;9.70;8.70;;;14.40;99.90;;;;;;5161130;27;20215;-83
2023/02/20 14:04:32;;;;;;;9.57;8.77;;;14.40;99.90;;;;;;5171703;27;20605;-84
2023/02/20 14:06:58;;;;;;;8.50;7.90;;;14.40;99.90;;;;;;5157784;27;20212;-82
2023/02/20 14:09:30;;;;;;;7.15;6.75;;;14.40;99.90;;;;;;5178034;27;20461;-83
2023/02/20 14:12:06;;;;;;;7.70;7.20;;;14.50;99.90;;;;;;5156850;27;20574;-83
2023/02/20 14:14:37;;;;;;;7.80;7.30;;;14.40;99.90;;;;;;5157612;27;20194;-83
2023/02/20 14:17:12;;;;;;;8.40;7.57;;;14.40;99.90;;;;;;5172310;27;20273;-82
2023/02/20 14:19:43;;;;;;;8.47;7.87;;;14.50;99.90;;;;;;5179710;27;20591;-84
2023/02/20 14:22:26;;;;;;;7.73;7.30;;;14.50;99.90;;;;;;5159634;27;20211;-83
2023/02/20 14:25:23;;;;;;;7.70;7.17;;;14.50;99.90;;;;;;5155600;27;20565;-84
2023/02/20 14:27:50;;;;;;;7.50;6.97;;;14.50;99.90;;;;;;5157263;27;20197;-82
2023/02/20 14:30:20;;;;;;;7.43;6.93;;;14.50;99.90;;;;;;5177888;27;20195;-83
2023/02/20 14:32:48;;;;;;;7.67;7.17;;;14.50;99.90;;;;;;5160229;27;20757;-83
2023/02/20 14:35:38;;;;;;;9.23;8.33;;;14.50;99.90;;;;;;5161186;27;20250;-82
2023/02/20 14:38:19;;;;;;;8.33;7.57;;;14.60;99.90;;;;;;5151577;27;20199;-83
2023/02/20 14:40:47;;;;;;;7.90;7.40;;;14.60;99.90;;;;;;5157317;27;20765;-81
2023/02/20 14:43:18;;;;;;;7.83;7.33;;;14.50;99.90;;;;;;5156970;27;20284;-81
2023/02/20 14:45:57;;;;;;;8.00;7.43;;;14.60;99.90;;;;;;5178808;27;20184;-81
2023/02/20 14:48:42;;;;;;;8.73;8.00;;;14.50;99.90;;;;;;5140598;27;20202;-82
2023/02/20 14:51:16;;;;;;;7.90;7.40;;;14.50;99.90;;;;;;5136693;27;20235;-82
2023/02/20 14:53:44;;;;;;;8.50;7.90;;;14.50;99.90;;;;;;5140675;27;20196;-83
2023/02/20 14:56:16;;;;;;;7.80;7.30;;;14.50;99.90;;;;;;5159190;27;20670;-82
2023/02/20 14:58:43;;;;;;;8.30;7.67;;;14.50;99.90;;;;;;5138316;27;20692;-82
2023/02/20 15:01:18;;;;;;;8.20;7.70;;;14.40;99.90;;;;;;5144382;27;20234;-81
2023/02/20 15:04:00;;;;;;;8.20;7.80;;;14.40;99.90;;;;;;5145774;27;20191;-81
2023/02/20 15:06:30;;;;;;;8.10;7.67;;;14.40;99.90;;;;;;5153436;27;20662;-81
2023/02/20 15:08:58;;;;;;;8.23;7.73;;;14.40;99.90;;;;;;5139302;27;20198;-82
2023/02/20 15:11:27;;;;;;;8.10;7.60;;;14.40;99.90;;;;;;5154607;27;20251;-82
2023/02/20 15:13:56;;;;;;;8.93;8.33;;;14.40;99.90;;;;;;5136284;27;20193;-82
2023/02/20 15:16:26;;;;;;;8.10;7.60;;;14.30;99.90;;;;;;5142795;27;20213;-82
2023/02/20 15:18:53;;;;;;;8.50;7.90;;;14.30;99.90;;;;;;5160687;27;20188;-82
2023/02/20 15:21:36;;;;;;;8.80;8.30;;;14.30;99.90;;;;;;5146605;27;20275;-82
2023/02/20 15:24:34;;;;;;;9.20;8.60;;;14.30;99.90;;;;;;5168296;27;20718;-82
2023/02/20 15:27:14;;;;;;;8.50;8.00;;;14.30;99.90;;;;;;5138610;27;20180;-83
2023/02/20 15:29:42;;;;;;;8.50;8.00;;;14.30;99.90;;;;;;5150864;27;20191;-82
2023/02/20 15:32:19;;;;;;;8.13;7.70;;;14.20;99.90;;;;;;5142274;27;20290;-81
2023/02/20 15:34:51;;;;;;;8.33;7.80;;;14.20;99.90;;;;;;5144524;27;20197;-81
2023/02/20 15:37:24;;;;;;;8.50;7.80;;;14.20;99.90;;;;;;5140745;27;20207;-81
2023/02/20 15:39:52;;;;;;;8.00;7.60;;;14.20;99.90;;;;;;5159405;27;20183;-79
2023/02/20 15:42:22;;;;;;;8.73;8.13;;;14.10;99.90;;;;;;5138715;27;20221;-80
2023/02/20 15:44:49;;;;;;;8.40;7.80;;;14.10;99.90;;;;;;5161010;27;20719;-81
2023/02/20 15:47:17;;;;;;;8.37;7.87;;;14.10;99.90;;;;;;5160025;27;20187;-80
2023/02/20 15:49:45;;;;;;;7.90;7.50;;;14.00;99.90;;;;;;5142494;27;20195;-80
2023/02/20 15:52:17;;;;;;;8.10;7.70;;;13.90;99.90;;;;;;5137812;27;20217;-80
2023/02/20 15:54:51;;;;;;;8.20;7.70;;;13.90;99.90;;;;;;5163118;27;20263;-81
2023/02/20 15:57:19;;;;;;;8.10;7.70;;;13.80;99.90;;;;;;5146822;27;20204;-80
2023/02/20 15:59:46;;;;;;;8.00;7.60;;;13.80;99.90;;;;;;5161291;27;20278;-79
2023/02/20 16:02:18;;;;;;;8.60;8.00;;;13.70;99.90;;;;;;5146409;27;20279;-79
2023/02/20 16:04:46;;;;;;;8.20;7.70;;;13.70;99.90;;;;;;5157509;27;20208;-79
2023/02/20 16:07:14;;;;;;;8.37;7.87;;;13.60;99.90;;;;;;5163989;27;20267;-79
2023/02/20 16:09:41;;;;;;;8.23;7.73;;;13.60;99.90;;;;;;5168328;27;20198;-79
2023/02/20 16:12:16;;;;;;;8.40;7.83;;;13.50;99.90;;;;;;5160852;27;20208;-79
2023/02/20 16:14:44;;;;;;;8.30;7.80;;;13.40;99.90;;;;;;5161050;27;20206;-78
2023/02/20 16:17:18;;;;;;;8.07;7.57;;;13.40;99.90;;;;;;5160921;27;20242;-79
2023/02/20 16:19:45;;;;;;;7.47;6.93;;;13.30;99.90;;;;;;5141350;27;20199;-79
2023/02/20 16:22:11;;;;;;;7.10;6.70;;;13.20;99.90;;;;;;5157041;27;20211;-79
2023/02/20 16:24:41;;;;;;;7.17;6.70;;;13.10;99.90;;;;;;5141687;27;20575;-83
2023/02/20 16:27:15;;;;;;;7.50;7.10;;;13.00;99.90;;;;;;5142105;27;20656;-83
2023/02/20 16:29:41;;;;;;;7.60;7.20;;;12.90;99.90;;;;;;5135738;27;20272;-82
2023/02/20 16:32:24;;;;;;;8.17;7.60;;;12.80;99.90;;;;;;5155736;27;20290;-82
2023/02/20 16:34:55;;;;;;;7.93;7.43;;;12.70;99.90;;;;;;5142308;27;20187;-83
2023/02/20 16:37:22;;;;;;;8.10;7.60;;;12.60;99.90;;;;;;5159556;27;20207;-82
2023/02/20 16:39:50;;;;;;;7.90;7.50;;;12.40;99.90;;;;;;5150706;27;20201;-83
2023/02/20 16:42:28;;;;;;;7.93;7.53;;;12.30;99.90;;;;;;5152408;27;20624;-82
2023/02/20 16:44:57;;;;;;;8.20;7.70;;;12.20;99.90;;;;;;5135155;27;20195;-84
2023/02/20 16:47:29;;;;;;;7.90;7.40;;;12.00;99.90;;;;;;5137199;27;20186;-83
2023/02/20 16:50:00;;;;;;;8.37;7.97;;;11.90;99.90;;;;;;5157060;27;20199;-83
2023/02/20 16:52:29;;;;;;;8.87;8.37;;;11.80;99.90;;;;;;5153879;27;20210;-84
2023/02/20 16:54:57;;;;;;;9.07;8.50;;;11.70;99.90;;;;;;5154402;27;20185;-83
2023/02/20 16:57:25;;;;;;;8.73;8.23;;;11.60;99.90;;;;;;5137183;27;20210;-84
2023/02/20 16:59:54;;;;;;;8.23;7.83;;;11.50;99.90;;;;;;5157775;27;20195;-83
2023/02/20 17:02:24;;;;;;;8.23;7.73;;;11.30;99.90;;;;;;5132905;27;20218;-85
2023/02/20 17:04:54;;;;;;;8.57;7.97;;;11.20;99.90;;;;;;5146387;27;20650;-84
2023/02/20 17:07:21;;;;;;;8.13;7.63;;;11.10;99.90;;;;;;5138182;27;20557;-84
2023/02/20 17:09:48;;;;;;;8.40;7.90;;;11.00;99.90;;;;;;5136647;27;20568;-83
2023/02/20 17:12:19;;;;;;;8.37;7.80;;;10.90;99.90;;;;;;5137298;27;20646;-84
2023/02/20 17:14:47;;;;;;;8.07;7.57;;;10.80;99.90;;;;;;5132975;27;20197;-83
2023/02/20 17:17:15;;;;;;;8.20;7.70;;;10.70;99.90;;;;;;5138379;27;20287;-84
2023/02/20 17:19:44;;;;;;;8.63;8.03;;;10.60;99.90;;;;;;5159870;27;20248;-84
2023/02/20 17:22:13;;;;;;;8.30;7.80;;;10.50;99.90;;;;;;5164461;27;20272;-84
2023/02/20 17:24:41;;;;;;;8.80;8.30;;;10.40;99.90;;;;;;5143142;27;20200;-83
2023/02/20 17:27:09;;;;;;;8.80;8.30;;;10.40;99.90;;;;;;5144276;27;20189;-86
2023/02/20 17:29:36;;;;;;;8.20;7.70;;;10.30;99.90;;;;;;5156086;27;20195;-81
2023/02/20 17:32:03;;;;;;;8.53;8.03;;;10.20;99.90;;;;;;5151108;27;20300;-82
2023/02/20 17:34:30;;;;;;;9.00;8.40;;;10.10;99.90;;;;;;5138220;27;20671;-82
2023/02/20 17:36:56;;;;;;;9.10;8.40;;;10.10;99.90;;;;;;5137773;27;20242;-83
2023/02/20 17:39:25;;;;;;;9.10;8.40;;;10.00;99.90;;;;;;5145914;27;20206;-82
2023/02/20 17:41:54;;;;;;;9.27;8.40;;;9.90;99.90;;;;;;5138215;27;20239;-83
2023/02/20 17:44:24;;;;;;;8.67;8.13;;;9.90;99.90;;;;;;5139209;27;20205;-81
2023/02/20 17:46:52;;;;;;;9.10;8.40;;;9.80;99.90;;;;;;5159215;27;20580;-84
2023/02/20 17:49:19;;;;;;;8.70;8.10;;;9.80;99.90;;;;;;5142693;27;20196;-87
2023/02/20 17:51:47;;;;;;;8.33;7.83;;;9.70;99.90;;;;;;5127766;27;20249;-86
2023/02/20 17:54:14;;;;;;;8.50;7.90;;;9.70;99.90;;;;;;5134800;27;20290;-86
2023/02/20 17:56:44;;;;;;;9.00;8.50;;;9.70;99.90;;;;;;5136629;27;20210;-86